Salacak — 3FBM4 — position and weather

sailwx.info

Track history (hours):
 
Tides and Currents Weather Stations Pressure Air Temp Water Temp Dewpoint Dewpoint Depression Visibility Wind Speed Wind Dir Waves Ship Positions

Salacak

Last reported at 2015-Mar-31 11:04 UTC. Time now 2015-Mar-31 22:06 UTC.
Position N 41°18' E 029°41'.

Length 126 m; draft 5.2 m.

Type: Cargo ship. MMSI: 373532000.

Date/timePositionNaut miles runAvg speedWind from/ knotsBaromVisibWave heightAir tempDewpointWater temp
2015-Mar-31 11:04N 41°18' E 029°41'3610.3
2015-Mar-31 07:33N 40°59' E 028°60'9 8.7
2015-Mar-31 06:30N 40°50' E 029°01'1 0.5
2015-Mar-31 04:17N 40°49' E 029°00'1 0.5
2015-Mar-31 02:29N 40°49' E 028°59'3 3.6
2015-Mar-31 01:33N 40°52' E 028°57'0 0.3
2015-Mar-31 00:22N 40°51' E 028°57'0 0.2
2015-Mar-30 22:11N 40°51' E 028°57'4 5.9
2015-Mar-30 21:29N 40°50' E 028°52'1211.7
2015-Mar-30 20:28N 40°52' E 028°36'  
2015-Mar-26 03:33N 40°53' E 028°31'1212.0
2015-Mar-26 02:32N 40°54' E 028°47'25 5.1
2015-Mar-25 21:32N 41°17' E 029°03'0 0.0
2015-Mar-25 20:32N 41°17' E 029°03'0 0.0
2015-Mar-25 19:32N 41°17' E 029°03'0 0.0
2015-Mar-25 18:32N 41°17' E 029°03'0 0.0
2015-Mar-25 17:32N 41°17' E 029°03'0 0.0
2015-Mar-25 16:32N 41°17' E 029°03'0 0.0
2015-Mar-25 15:29N 41°17' E 029°03'0 0.0
2015-Mar-25 14:32N 41°17' E 029°03'0 0.0
2015-Mar-25 13:32N 41°17' E 029°03'0 0.0
2015-Mar-25 12:29N 41°17' E 029°03'0 0.0
2015-Mar-25 11:32N 41°17' E 029°03'0 0.0
2015-Mar-25 10:32N 41°17' E 029°03'0 0.1
2015-Mar-25 09:28N 41°17' E 029°03'6 7.0
2015-Mar-25 08:33N 41°20' E 029°10'1212.1
2015-Mar-25 07:33N 41°23' E 029°26'  
2015-Mar-22 11:13N 44°44' E 037°47'0 0.0
2015-Mar-22 03:25N 44°44' E 037°47'3 3.9
2015-Mar-22 02:33N 44°41' E 037°50'8 7.2
2015-Mar-22 01:29N 44°35' E 037°56'1 0.7
2015-Mar-22 00:19N 44°34' E 037°57'0 0.0
2015-Mar-21 14:22N 44°34' E 037°57'  
Track history (hours):
 
Tides and Currents Weather Stations Pressure Air Temp Water Temp Dewpoint Dewpoint Depression Visibility Wind Speed Wind Dir Waves Ship Positions

Salacak

Last reported at 2015-Mar-31 11:04 UTC. Time now 2015-Mar-31 22:06 UTC.
Position N 41°18' E 029°41'.

Length 126 m; draft 5.2 m.

Type: Cargo ship. MMSI: 373532000.

Date/timePositionNaut miles runAvg speedWind from/ knotsBaromVisibWave heightAir tempDewpointWater temp
2015-Mar-31 11:04N 41°18' E 029°41'3610.3
2015-Mar-31 07:33N 40°59' E 028°60'9 8.7
2015-Mar-31 06:30N 40°50' E 029°01'1 0.5
2015-Mar-31 04:17N 40°49' E 029°00'1 0.5
2015-Mar-31 02:29N 40°49' E 028°59'3 3.6
2015-Mar-31 01:33N 40°52' E 028°57'0 0.3
2015-Mar-31 00:22N 40°51' E 028°57'0 0.2
2015-Mar-30 22:11N 40°51' E 028°57'4 5.9
2015-Mar-30 21:29N 40°50' E 028°52'1211.7
2015-Mar-30 20:28N 40°52' E 028°36'  
2015-Mar-26 03:33N 40°53' E 028°31'1212.0
2015-Mar-26 02:32N 40°54' E 028°47'25 5.1
2015-Mar-25 21:32N 41°17' E 029°03'0 0.0
2015-Mar-25 20:32N 41°17' E 029°03'0 0.0
2015-Mar-25 19:32N 41°17' E 029°03'0 0.0
2015-Mar-25 18:32N 41°17' E 029°03'0 0.0
2015-Mar-25 17:32N 41°17' E 029°03'0 0.0
2015-Mar-25 16:32N 41°17' E 029°03'0 0.0
2015-Mar-25 15:29N 41°17' E 029°03'0 0.0
2015-Mar-25 14:32N 41°17' E 029°03'0 0.0
2015-Mar-25 13:32N 41°17' E 029°03'0 0.0
2015-Mar-25 12:29N 41°17' E 029°03'0 0.0
2015-Mar-25 11:32N 41°17' E 029°03'0 0.0
2015-Mar-25 10:32N 41°17' E 029°03'0 0.1
2015-Mar-25 09:28N 41°17' E 029°03'6 7.0
2015-Mar-25 08:33N 41°20' E 029°10'1212.1
2015-Mar-25 07:33N 41°23' E 029°26'  
2015-Mar-22 11:13N 44°44' E 037°47'0 0.0
2015-Mar-22 03:25N 44°44' E 037°47'3 3.9
2015-Mar-22 02:33N 44°41' E 037°50'8 7.2
2015-Mar-22 01:29N 44°35' E 037°56'1 0.7
2015-Mar-22 00:19N 44°34' E 037°57'0 0.0
2015-Mar-21 14:22N 44°34' E 037°57'  

Dump ship's entire track history